createdAt,value
2018-12-29T00:00:00.193Z,53.85
2018-12-29T00:02:28.711Z,60.28
2018-12-29T00:04:57.455Z,72.37
2018-12-29T00:07:26.051Z,68.28
2018-12-29T00:09:54.691Z,68.80
2018-12-29T00:12:23.233Z,70.92
2018-12-29T00:14:55.038Z,86.70
2018-12-29T00:17:21.987Z,96.20
2018-12-29T00:19:50.497Z,89.50
2018-12-29T00:22:19.093Z,67.92
2018-12-29T00:24:47.892Z,77.27
2018-12-29T00:27:16.358Z,69.27
2018-12-29T00:29:45.066Z,74.95
2018-12-29T00:32:13.620Z,88.80
2018-12-29T00:34:42.119Z,72.37
2018-12-29T00:37:10.644Z,74.45
2018-12-29T00:39:39.213Z,73.15
2018-12-29T00:42:07.786Z,63.08
2018-12-29T00:44:36.408Z,66.67
2018-12-29T00:47:04.938Z,77.15
2018-12-29T00:49:33.444Z,72.85
2018-12-29T00:52:01.977Z,83.15
2018-12-29T00:54:30.592Z,77.30
2018-12-29T00:56:59.186Z,88.62
2018-12-29T00:59:27.726Z,71.47
2018-12-29T01:01:56.279Z,74.62
2018-12-29T01:04:24.803Z,67.65
2018-12-29T01:06:53.315Z,87.37
2018-12-29T01:09:21.899Z,73.22
2018-12-29T01:11:50.428Z,81.63
2018-12-29T01:14:18.951Z,68.22
2018-12-29T01:16:47.475Z,60.73
2018-12-29T01:19:16.090Z,88.20
2018-12-29T01:21:44.642Z,88.60
2018-12-29T01:24:13.219Z,66.62
2018-12-29T01:26:41.816Z,76.62
2018-12-29T01:29:10.347Z,87.00
2018-12-29T01:31:38.886Z,70.60
2018-12-29T01:34:07.402Z,65.75
2018-12-29T01:36:36.033Z,62.98
2018-12-29T01:39:05.582Z,84.32
2018-12-29T01:41:34.108Z,66.30
2018-12-29T01:44:02.615Z,73.20
2018-12-29T01:46:31.145Z,149.38
2018-12-29T01:48:59.683Z,81.63
2018-12-29T01:51:28.199Z,74.30
2018-12-29T01:53:56.871Z,83.75
2018-12-29T01:56:25.396Z,114.70
2018-12-29T01:58:53.915Z,88.55
2018-12-29T02:01:22.441Z,85.90
2018-12-29T02:03:50.995Z,89.97
2018-12-29T02:06:19.579Z,130.07
2018-12-29T02:08:48.223Z,89.30
2018-12-29T02:11:16.754Z,75.90
2018-12-29T02:13:45.371Z,81.15
2018-12-29T02:16:13.900Z,78.55
2018-12-29T02:18:42.430Z,88.45
2018-12-29T02:21:11.005Z,77.90
2018-12-29T02:23:39.557Z,69.55
2018-12-29T02:26:08.079Z,92.17
2018-12-29T02:28:36.941Z,90.20
2018-12-29T02:31:05.487Z,143.00
2018-12-29T02:33:34.095Z,76.30
2018-12-29T02:36:02.706Z,85.47
2018-12-29T02:38:31.382Z,78.30
2018-12-29T02:40:59.933Z,78.10
2018-12-29T02:43:28.391Z,77.90
2018-12-29T02:45:57.001Z,68.15
2018-12-29T02:48:25.600Z,90.32
2018-12-29T02:50:54.133Z,78.15
2018-12-29T02:53:22.728Z,102.60
2018-12-29T02:55:51.275Z,66.17
2018-12-29T02:58:19.860Z,70.25
2018-12-29T03:00:48.396Z,102.10
2018-12-29T03:03:16.939Z,83.45
2018-12-29T03:05:45.482Z,123.50
2018-12-29T03:08:14.037Z,100.25
2018-12-29T03:10:42.559Z,100.20
2018-12-29T03:13:11.086Z,79.05
2018-12-29T03:15:41.586Z,114.80
2018-12-29T03:18:09.941Z,74.67
2018-12-29T03:20:38.575Z,89.07
2018-12-29T03:23:07.250Z,85.28
2018-12-29T03:25:35.843Z,112.32
2018-12-29T03:28:04.362Z,146.02
2018-12-29T03:30:32.884Z,108.67
2018-12-29T03:33:01.522Z,79.17
2018-12-29T03:35:30.161Z,85.97
2018-12-29T03:37:58.689Z,66.47
2018-12-29T03:40:27.524Z,68.75
2018-12-29T03:42:56.283Z,85.55
2018-12-29T03:45:24.807Z,67.40
2018-12-29T03:47:53.386Z,89.58
2018-12-29T03:50:21.930Z,78.40
2018-12-29T03:52:50.441Z,79.80
2018-12-29T03:55:18.941Z,79.87
2018-12-29T03:57:47.488Z,90.80
2018-12-29T04:00:15.994Z,86.15
2018-12-29T04:02:44.525Z,143.15
2018-12-29T04:05:13.053Z,159.60
2018-12-29T04:07:41.608Z,97.15
2018-12-29T04:10:12.391Z,225.60
2018-12-29T04:12:41.868Z,110.92
2018-12-29T04:15:10.408Z,153.27
2018-12-29T04:17:38.989Z,216.60
2018-12-29T04:20:07.491Z,184.95
2018-12-29T04:22:36.010Z,166.57
2018-12-29T04:25:04.601Z,210.48
2018-12-29T04:27:33.113Z,144.02
2018-12-29T04:30:01.656Z,124.75
2018-12-29T04:32:30.275Z,165.62
2018-12-29T04:34:58.777Z,164.25
2018-12-29T04:37:27.319Z,163.57
2018-12-29T04:39:55.845Z,153.97
2018-12-29T04:42:24.386Z,267.77
2018-12-29T04:44:52.922Z,141.92
2018-12-29T04:47:21.446Z,233.05
2018-12-29T04:49:49.976Z,137.32
2018-12-29T04:52:18.485Z,117.17
2018-12-29T04:54:46.940Z,246.45
2018-12-29T04:57:15.455Z,172.82
2018-12-29T04:59:43.990Z,140.82
2018-12-29T05:02:12.518Z,142.28
2018-12-29T05:04:41.125Z,107.03
2018-12-29T05:07:09.652Z,208.50
2018-12-29T05:09:38.259Z,187.45
2018-12-29T05:12:06.794Z,132.22
2018-12-29T05:14:35.312Z,124.55
2018-12-29T05:17:03.822Z,121.95
2018-12-29T05:19:32.358Z,142.80
2018-12-29T05:22:00.884Z,197.47
2018-12-29T05:24:29.442Z,128.57
2018-12-29T05:26:57.957Z,145.75
2018-12-29T05:29:26.478Z,140.12
2018-12-29T05:31:54.999Z,144.15
2018-12-29T05:34:23.525Z,110.42
2018-12-29T05:36:52.158Z,108.12
2018-12-29T05:39:20.684Z,100.85
2018-12-29T05:41:49.209Z,101.18
2018-12-29T05:44:17.734Z,100.92
2018-12-29T05:46:46.250Z,93.55
2018-12-29T05:49:14.769Z,97.35
2018-12-29T05:51:43.288Z,80.40
2018-12-29T05:54:11.832Z,94.03
2018-12-29T05:56:40.356Z,77.97
2018-12-29T05:59:08.988Z,69.55
2018-12-29T06:01:37.512Z,76.97
2018-12-29T06:04:06.032Z,71.57
2018-12-29T06:06:34.540Z,75.42
2018-12-29T06:09:04.618Z,76.00
2018-12-29T06:11:33.186Z,70.00
2018-12-29T06:14:01.688Z,66.82
2018-12-29T06:16:30.198Z,67.03
2018-12-29T06:18:58.789Z,72.30
2018-12-29T06:21:27.318Z,67.20
2018-12-29T06:23:55.836Z,66.80
2018-12-29T06:26:24.342Z,61.70
2018-12-29T06:28:52.886Z,67.53
2018-12-29T06:31:21.392Z,60.03
2018-12-29T06:33:49.918Z,61.45
2018-12-29T06:36:18.431Z,62.08
2018-12-29T06:38:46.979Z,64.75
2018-12-29T06:41:15.432Z,60.92
2018-12-29T06:43:44.026Z,62.45
2018-12-29T06:46:12.546Z,54.10
2018-12-29T06:48:41.136Z,53.58
2018-12-29T06:51:09.662Z,56.75
2018-12-29T06:53:38.194Z,58.17
2018-12-29T06:56:06.706Z,55.25
2018-12-29T06:58:35.227Z,59.25
2018-12-29T07:01:03.769Z,55.50
2018-12-29T07:03:32.306Z,56.37
2018-12-29T07:06:00.832Z,53.87
2018-12-29T07:08:29.394Z,53.13
2018-12-29T07:10:57.941Z,54.65
2018-12-29T07:13:26.498Z,54.55
2018-12-29T07:15:55.036Z,52.55
2018-12-29T07:18:23.616Z,55.03
2018-12-29T07:20:52.146Z,56.95
2018-12-29T07:23:20.718Z,54.25
2018-12-29T07:25:49.266Z,54.42
2018-12-29T07:28:17.787Z,52.40
2018-12-29T07:30:46.309Z,52.60
2018-12-29T07:33:14.830Z,51.30
2018-12-29T07:35:43.432Z,52.78
2018-12-29T07:38:11.966Z,55.90
2018-12-29T07:40:40.520Z,53.00
2018-12-29T07:43:09.041Z,58.85
2018-12-29T07:45:37.578Z,57.70
2018-12-29T07:48:06.176Z,58.45
2018-12-29T07:50:34.680Z,56.95
2018-12-29T07:53:03.211Z,50.17
2018-12-29T07:55:31.811Z,49.55
2018-12-29T07:58:00.712Z,48.95
2018-12-29T08:00:29.233Z,59.77
2018-12-29T08:02:57.774Z,49.05
2018-12-29T08:05:26.317Z,53.90
2018-12-29T08:07:54.856Z,52.50
2018-12-29T08:10:23.366Z,50.55
2018-12-29T08:12:51.989Z,56.25
2018-12-29T08:15:20.508Z,57.78
2018-12-29T08:17:49.056Z,53.87
2018-12-29T08:20:17.572Z,51.98
2018-12-29T08:22:46.107Z,52.27
2018-12-29T08:25:14.621Z,53.35
2018-12-29T08:27:43.208Z,55.12
2018-12-29T08:30:11.751Z,50.40
2018-12-29T08:32:40.329Z,54.35
2018-12-29T08:35:08.858Z,45.92
2018-12-29T08:37:37.376Z,54.05
2018-12-29T08:40:05.971Z,50.73
2018-12-29T08:42:34.515Z,48.28
2018-12-29T08:45:03.053Z,47.67
2018-12-29T08:47:31.562Z,48.63
2018-12-29T08:50:00.171Z,43.05
2018-12-29T08:52:28.703Z,44.48
2018-12-29T08:54:57.312Z,49.35
2018-12-29T08:57:25.894Z,44.85
2018-12-29T08:59:54.412Z,47.98
2018-12-29T09:02:23.006Z,45.65
2018-12-29T09:04:51.528Z,48.02
2018-12-29T09:07:20.060Z,50.43
2018-12-29T09:09:48.606Z,48.42
2018-12-29T09:12:17.124Z,49.75
2018-12-29T09:14:45.672Z,63.75
2018-12-29T09:17:14.206Z,48.55
2018-12-29T09:19:42.742Z,48.73
2018-12-29T09:22:11.300Z,47.55
2018-12-29T09:24:39.840Z,51.65
2018-12-29T09:27:08.405Z,52.67
2018-12-29T09:29:37.033Z,50.40
2018-12-29T09:32:05.562Z,52.55
2018-12-29T09:34:34.183Z,51.25
2018-12-29T09:37:02.795Z,62.47
2018-12-29T09:39:34.183Z,82.67
2018-12-29T09:42:02.705Z,70.20
2018-12-29T09:44:31.216Z,94.13
2018-12-29T09:46:59.745Z,54.13
2018-12-29T09:49:28.313Z,50.78
2018-12-29T09:51:57.317Z,71.17
2018-12-29T09:54:26.127Z,60.52
2018-12-29T09:56:54.651Z,55.20
2018-12-29T09:59:23.269Z,60.53
2018-12-29T10:01:51.806Z,62.00
2018-12-29T10:04:20.494Z,83.47
2018-12-29T10:06:49.023Z,82.72
2018-12-29T10:09:17.568Z,59.63
2018-12-29T10:11:46.095Z,55.90
2018-12-29T10:14:14.638Z,56.67
2018-12-29T10:16:43.178Z,63.43
2018-12-29T10:19:11.701Z,55.23
2018-12-29T10:21:40.241Z,49.53
2018-12-29T10:24:08.769Z,52.43
2018-12-29T10:26:37.287Z,52.77
2018-12-29T10:29:05.824Z,50.40
2018-12-29T10:31:34.379Z,51.23
2018-12-29T10:34:02.903Z,57.87
2018-12-29T10:36:31.619Z,54.87
2018-12-29T10:39:00.246Z,54.05
2018-12-29T10:41:28.804Z,51.47
2018-12-29T10:43:57.628Z,53.33
2018-12-29T10:46:26.203Z,55.40
2018-12-29T10:48:54.742Z,58.20
2018-12-29T10:51:23.365Z,54.90
2018-12-29T10:53:51.970Z,56.03
2018-12-29T10:56:20.495Z,58.13
2018-12-29T10:58:49.128Z,61.90
2018-12-29T11:01:17.676Z,61.90
2018-12-29T11:03:46.211Z,59.90
2018-12-29T11:06:15.953Z,65.37
2018-12-29T11:08:44.564Z,65.17
2018-12-29T11:11:13.205Z,65.60
2018-12-29T11:13:41.788Z,60.67
2018-12-29T11:16:11.756Z,61.10
2018-12-29T11:18:40.299Z,64.87
2018-12-29T11:21:08.834Z,62.63
2018-12-29T11:23:37.355Z,62.87
2018-12-29T11:26:05.964Z,63.60
2018-12-29T11:28:34.505Z,67.10
2018-12-29T11:31:03.026Z,72.07
2018-12-29T11:33:31.555Z,81.97
2018-12-29T11:36:00.122Z,70.47
2018-12-29T11:38:28.630Z,70.50
2018-12-29T11:40:57.159Z,76.37
2018-12-29T11:43:25.697Z,71.17
2018-12-29T11:45:54.234Z,63.10
2018-12-29T11:48:22.776Z,65.40
2018-12-29T11:50:51.328Z,58.80
2018-12-29T11:53:19.872Z,72.03
2018-12-29T11:55:48.504Z,62.57
2018-12-29T11:58:17.102Z,64.13
2018-12-29T12:00:45.628Z,62.70
2018-12-29T12:03:14.192Z,58.80
2018-12-29T12:05:42.820Z,69.40
2018-12-29T12:08:11.350Z,65.77
2018-12-29T12:10:40.007Z,66.53
2018-12-29T12:13:08.694Z,60.03
2018-12-29T12:15:37.304Z,58.10
2018-12-29T12:18:05.829Z,65.33
2018-12-29T12:20:34.424Z,57.03
2018-12-29T12:23:02.990Z,58.87
2018-12-29T12:25:31.538Z,61.47
2018-12-29T12:28:00.439Z,62.10
2018-12-29T12:30:29.072Z,58.17
2018-12-29T12:32:57.658Z,56.33
2018-12-29T12:35:26.278Z,57.63
2018-12-29T12:37:54.815Z,66.42
2018-12-29T12:40:23.612Z,54.50
2018-12-29T12:42:52.450Z,59.53
2018-12-29T12:45:21.032Z,56.07
2018-12-29T12:47:49.565Z,59.10
2018-12-29T12:50:18.174Z,58.40
2018-12-29T12:52:46.778Z,60.07
2018-12-29T12:55:15.316Z,57.17
2018-12-29T12:57:43.908Z,62.03
2018-12-29T13:00:12.882Z,62.53
2018-12-29T13:02:41.440Z,58.97
2018-12-29T13:05:09.976Z,70.80
2018-12-29T13:07:38.534Z,57.97
2018-12-29T13:10:07.442Z,63.63
2018-12-29T13:12:36.244Z,55.00
2018-12-29T13:15:05.164Z,57.17
2018-12-29T13:17:33.686Z,57.40
2018-12-29T13:20:02.306Z,55.50
2018-12-29T13:22:30.868Z,68.60
2018-12-29T13:24:59.690Z,52.97
2018-12-29T13:27:28.271Z,50.50
2018-12-29T13:29:56.855Z,63.50
2018-12-29T13:32:25.499Z,60.43
2018-12-29T13:34:54.082Z,63.77
2018-12-29T13:37:23.016Z,60.10
2018-12-29T13:39:51.637Z,60.83
2018-12-29T13:42:20.235Z,58.20
2018-12-29T13:44:48.840Z,62.80
2018-12-29T13:47:17.354Z,60.30
2018-12-29T13:49:45.903Z,78.53
2018-12-29T13:52:14.538Z,60.50
2018-12-29T13:54:43.098Z,72.77
2018-12-29T13:57:11.718Z,62.40
2018-12-29T13:59:40.340Z,67.20
2018-12-29T14:02:08.977Z,67.95
2018-12-29T14:04:37.474Z,64.53
2018-12-29T14:07:06.009Z,79.77
2018-12-29T14:09:34.585Z,68.13
2018-12-29T14:12:03.102Z,69.63
2018-12-29T14:14:31.739Z,69.60
2018-12-29T14:17:00.267Z,69.97
2018-12-29T14:19:28.840Z,68.20
2018-12-29T14:21:57.463Z,62.57
2018-12-29T14:24:26.065Z,71.43
2018-12-29T14:26:54.644Z,82.20
2018-12-29T14:29:23.181Z,75.10
2018-12-29T14:31:51.747Z,65.33
2018-12-29T14:34:20.274Z,63.90
2018-12-29T14:36:48.810Z,70.35
2018-12-29T14:39:17.540Z,105.12
2018-12-29T14:41:46.094Z,115.93
2018-12-29T14:44:14.624Z,298.97
2018-12-29T14:46:43.218Z,79.50
2018-12-29T14:49:11.770Z,119.07
2018-12-29T14:51:40.305Z,81.07
2018-12-29T14:54:09.366Z,90.90
2018-12-29T14:56:37.960Z,79.07
2018-12-29T14:59:06.484Z,78.73
2018-12-29T15:01:35.378Z,105.10
2018-12-29T15:04:03.897Z,84.63
2018-12-29T15:06:32.530Z,110.37
2018-12-29T15:09:01.055Z,147.57
2018-12-29T15:11:29.606Z,147.50
2018-12-29T15:13:58.122Z,133.40
2018-12-29T15:16:26.569Z,127.47
2018-12-29T15:18:56.728Z,114.00
2018-12-29T15:21:25.437Z,110.05
2018-12-29T15:23:54.030Z,157.10
2018-12-29T15:26:22.631Z,96.30
2018-12-29T15:28:51.262Z,91.10
2018-12-29T15:31:19.878Z,110.47
2018-12-29T15:33:48.484Z,76.17
2018-12-29T15:36:17.080Z,95.38
2018-12-29T15:38:45.646Z,93.52
2018-12-29T15:41:14.350Z,75.13
2018-12-29T15:43:42.943Z,89.83
2018-12-29T15:46:11.584Z,89.40
2018-12-29T15:48:40.225Z,85.00
2018-12-29T15:51:08.840Z,93.97
2018-12-29T15:53:37.445Z,79.00
2018-12-29T15:56:05.979Z,114.63
2018-12-29T15:58:34.677Z,83.75
2018-12-29T16:01:03.205Z,86.60
2018-12-29T16:03:31.728Z,90.77
2018-12-29T16:06:00.285Z,80.07
2018-12-29T16:08:29.364Z,89.63
2018-12-29T16:10:58.035Z,87.02
2018-12-29T16:13:26.575Z,92.20
2018-12-29T16:15:55.119Z,88.40
2018-12-29T16:18:24.021Z,86.33
2018-12-29T16:20:54.281Z,89.77
2018-12-29T16:23:23.577Z,90.12
2018-12-29T16:25:52.580Z,90.83
2018-12-29T16:28:21.169Z,82.65
2018-12-29T16:30:49.754Z,79.37
2018-12-29T16:33:18.349Z,80.50
2018-12-29T16:35:46.946Z,106.67
2018-12-29T16:38:15.880Z,89.80
2018-12-29T16:40:44.572Z,113.12
2018-12-29T16:43:13.240Z,83.52
2018-12-29T16:45:41.791Z,92.57
2018-12-29T16:48:10.693Z,104.85
2018-12-29T16:50:39.290Z,84.33
2018-12-29T16:53:07.826Z,119.03
2018-12-29T16:55:36.454Z,94.75
2018-12-29T16:58:05.350Z,89.55
2018-12-29T17:00:33.888Z,136.53
2018-12-29T17:03:02.528Z,143.37
2018-12-29T17:05:31.153Z,86.32
2018-12-29T17:08:00.052Z,91.13
2018-12-29T17:10:28.706Z,78.20
2018-12-29T17:12:57.398Z,95.73
2018-12-29T17:15:26.035Z,83.37
2018-12-29T17:17:54.585Z,86.47
2018-12-29T17:20:23.268Z,77.33
2018-12-29T17:22:51.827Z,85.77
2018-12-29T17:25:20.460Z,87.33
2018-12-29T17:27:49.029Z,74.40
2018-12-29T17:30:17.669Z,74.72
2018-12-29T17:32:46.579Z,77.40
2018-12-29T17:35:15.178Z,76.17
2018-12-29T17:37:43.802Z,69.23
2018-12-29T17:40:14.631Z,68.90
2018-12-29T17:42:43.723Z,80.40
2018-12-29T17:45:12.607Z,85.77
2018-12-29T17:47:41.754Z,245.80
2018-12-29T17:50:10.442Z,78.33
2018-12-29T17:52:39.131Z,74.77
2018-12-29T17:55:07.970Z,73.73
2018-12-29T17:57:36.597Z,70.63
2018-12-29T18:00:05.472Z,62.87
2018-12-29T18:02:34.513Z,158.87
2018-12-29T18:05:03.296Z,156.37
2018-12-29T18:07:32.417Z,153.33
2018-12-29T18:10:01.346Z,145.77
2018-12-29T18:12:30.130Z,78.10
2018-12-29T18:14:59.839Z,76.87
2018-12-29T18:17:28.433Z,70.77
2018-12-29T18:19:57.063Z,61.10
2018-12-29T18:22:25.761Z,64.67
2018-12-29T18:24:55.173Z,65.27
2018-12-29T18:27:23.862Z,57.13
2018-12-29T18:29:52.603Z,61.70
2018-12-29T18:32:23.243Z,59.43
2018-12-29T18:34:51.957Z,59.77
2018-12-29T18:37:20.802Z,62.13
2018-12-29T18:39:49.523Z,50.73
2018-12-29T18:42:18.187Z,52.77
2018-12-29T18:44:50.917Z,53.73
2018-12-29T18:47:19.724Z,56.20
2018-12-29T18:49:48.450Z,49.80
2018-12-29T18:52:17.145Z,71.07
2018-12-29T18:54:45.959Z,57.70
2018-12-29T18:57:14.771Z,45.30
2018-12-29T18:59:43.664Z,45.70
2018-12-29T19:02:12.287Z,41.53
2018-12-29T19:04:41.052Z,41.50
2018-12-29T19:07:10.150Z,46.93
2018-12-29T19:09:38.861Z,44.80
2018-12-29T19:12:11.152Z,48.70
2018-12-29T19:14:38.043Z,53.17
2018-12-29T19:17:06.690Z,46.67
2018-12-29T19:19:35.728Z,51.67
2018-12-29T19:22:04.513Z,44.63
2018-12-29T19:24:33.328Z,46.75
2018-12-29T19:27:02.076Z,47.53
2018-12-29T19:29:30.822Z,59.50
2018-12-29T19:31:59.824Z,50.97
2018-12-29T19:34:29.105Z,48.37
2018-12-29T19:36:58.318Z,48.63
2018-12-29T19:39:27.386Z,56.03
2018-12-29T19:41:56.163Z,51.07
2018-12-29T19:44:26.931Z,51.10
2018-12-29T19:46:55.926Z,52.77
2018-12-29T19:49:24.684Z,49.40
2018-12-29T19:51:53.695Z,48.67
2018-12-29T19:54:22.838Z,49.03
2018-12-29T19:56:53.848Z,52.97
2018-12-29T19:59:22.715Z,44.87
2018-12-29T20:01:52.112Z,46.73
2018-12-29T20:04:21.162Z,43.30
2018-12-29T20:06:49.890Z,43.67
2018-12-29T20:09:18.603Z,50.93
2018-12-29T20:11:49.697Z,46.10
2018-12-29T20:14:18.375Z,42.47
2018-12-29T20:16:47.118Z,48.40
2018-12-29T20:19:16.388Z,50.97
2018-12-29T20:21:45.096Z,53.37
2018-12-29T20:24:13.959Z,49.70
2018-12-29T20:26:45.032Z,90.30
2018-12-29T20:29:14.014Z,54.33
2018-12-29T20:31:42.795Z,42.13
2018-12-29T20:34:12.594Z,45.07
2018-12-29T20:36:41.356Z,129.23
2018-12-29T20:39:10.844Z,88.50
2018-12-29T20:41:39.566Z,46.03
2018-12-29T20:44:09.826Z,51.03
2018-12-29T20:46:38.630Z,50.97
2018-12-29T20:49:07.670Z,61.10
2018-12-29T20:51:36.771Z,68.97
2018-12-29T20:54:05.496Z,52.77
2018-12-29T20:56:34.258Z,48.97
2018-12-29T20:59:03.004Z,49.17
2018-12-29T21:01:31.788Z,44.87
2018-12-29T21:04:00.776Z,52.00
2018-12-29T21:06:29.767Z,46.57
2018-12-29T21:08:58.827Z,47.07
2018-12-29T21:11:27.611Z,44.03
2018-12-29T21:13:57.174Z,45.57
2018-12-29T21:16:26.465Z,51.20
2018-12-29T21:18:55.152Z,49.60
2018-12-29T21:21:25.410Z,59.83
2018-12-29T21:23:56.444Z,44.27
2018-12-29T21:26:25.210Z,63.77
2018-12-29T21:28:53.979Z,45.43
2018-12-29T21:31:26.102Z,43.03
2018-12-29T21:33:56.260Z,49.27
2018-12-29T21:36:24.955Z,51.47
2018-12-29T21:38:54.031Z,40.53
2018-12-29T21:41:22.792Z,58.00
2018-12-29T21:43:52.027Z,44.27
2018-12-29T21:46:21.615Z,43.43
2018-12-29T21:48:50.418Z,50.37
2018-12-29T21:51:19.179Z,40.80
2018-12-29T21:53:47.947Z,37.00
2018-12-29T21:56:17.026Z,39.60
2018-12-29T21:58:46.034Z,51.17
2018-12-29T22:01:14.713Z,48.27
2018-12-29T22:03:43.462Z,41.77
2018-12-29T22:06:13.264Z,57.13
2018-12-29T22:08:44.463Z,43.83
2018-12-29T22:11:13.416Z,42.97
2018-12-29T22:13:42.194Z,45.30
2018-12-29T22:16:11.157Z,51.33
2018-12-29T22:18:39.907Z,48.53
2018-12-29T22:21:08.895Z,43.27
2018-12-29T22:23:38.201Z,44.50
2018-12-29T22:26:06.953Z,43.70
2018-12-29T22:28:35.966Z,50.87
2018-12-29T22:31:05.121Z,53.27
2018-12-29T22:33:33.863Z,53.20
2018-12-29T22:36:02.948Z,57.63
2018-12-29T22:38:31.701Z,99.70
2018-12-29T22:41:00.518Z,82.13
2018-12-29T22:43:32.775Z,121.50
2018-12-29T22:46:01.527Z,53.97
2018-12-29T22:48:30.555Z,100.00
2018-12-29T22:50:59.149Z,72.17
2018-12-29T22:53:27.873Z,65.93
2018-12-29T22:55:58.885Z,71.23
2018-12-29T22:58:27.649Z,100.93
2018-12-29T23:00:56.387Z,83.40
2018-12-29T23:03:25.626Z,74.13
2018-12-29T23:05:54.641Z,89.20
2018-12-29T23:08:23.408Z,128.77
2018-12-29T23:10:52.134Z,78.23
2018-12-29T23:13:21.637Z,123.17
2018-12-29T23:15:50.307Z,100.23
2018-12-29T23:18:19.088Z,102.57
2018-12-29T23:20:49.140Z,159.67
2018-12-29T23:23:18.047Z,205.87
2018-12-29T23:25:46.969Z,161.60
2018-12-29T23:28:15.764Z,190.17
2018-12-29T23:30:44.400Z,167.60
2018-12-29T23:33:13.251Z,91.37
2018-12-29T23:35:41.910Z,175.47
2018-12-29T23:38:10.802Z,201.47
2018-12-29T23:40:39.530Z,164.10
2018-12-29T23:43:08.175Z,185.20
2018-12-29T23:45:37.419Z,106.70
2018-12-29T23:48:06.099Z,222.03
2018-12-29T23:50:35.572Z,398.00
2018-12-29T23:53:04.287Z,242.80
2018-12-29T23:55:33.225Z,219.73
2018-12-29T23:58:01.759Z,95.77
